Observations for CHRISTCHURCH IN, New Zealand (NZCH)

NZCH 242030Z AUTO 26003KT 9999 NCD 06/06 Q1019 NOSIG
NZCH 242000Z AUTO 24003KT 9999 NCD 05/05 Q1018 NOSIG
NZCH 241930Z AUTO 24002KT 9999 NCD 04/04 Q1018 NOSIG
NZCH 241900Z AUTO 28001KT 9999 SCT012/// 05/04 Q1018 NOSIG  
NZCH 241830Z AUTO 00000KT 0500 R20/P2000N FG FEW002/// 05/04 Q1017 BECMG FM1900 9999 NSW
NZCH 241800Z AUTO 15001KT 9999 NCD 04/04 Q1017 TEMPO 1500 BR
NZCH 241730Z AUTO 20001KT 9999 BKN011/// 04/04 Q1017 BECMG SCT011 TEMPO BKN011  
NZCH 241700Z AUTO 03002KT 9999 BKN013/// 05/04 Q1016 TEMPO 0400 FG  
NZCH 241630Z AUTO 00000KT 0900 R02/P2000N R20/P2000N FG BKN014/// 05/04 Q1016 TEMPO 0400 FG 
NZCH 241600Z AUTO 00000KT 0750 R02/1400D R20/P2000N FG FEW015/// 05/05 Q1016 TEMPO 0400 FG  
NZCH 241530Z AUTO 33003KT 2200 BCFG FEW002/// BKN015/// 06/06 Q1016 TEMPO 0400 FG   
NZCH 241500Z AUTO 02003KT 0200 R02/0900N R20/P2000N FG FEW002/// BKN017/// 05/05 Q1017 NOSIG
NZCH 241430Z AUTO 03003KT 1900 BCFG NCD 08/08 Q1017 BECMG 0400 FG   
NZCH 241400Z AUTO 02003KT 9999 NCD 09/08 Q1017 BECMG 0400 FG
NZCH 241330Z AUTO 03002KT 9999 NCD 10/09 Q1017 NOSIG
NZCH 241300Z AUTO 06003KT 9999 NCD 10/09 Q1017 BECMG 0400 FG
NZCH 241230Z AUTO 06004KT 9999 NCD 09/08 Q1017 NOSIG
NZCH 241200Z AUTO 08005KT 050V110 9999 NCD 11/09 Q1017 NOSIG
NZCH 241130Z AUTO 08007KT 9999 NCD 11/10 Q1017 NOSIG
NZCH 241100Z AUTO 08007KT 9999 NCD 12/10 Q1017 NOSIG
NZCH 241030Z AUTO 08007KT 9999 NCD 12/10 Q1017 NOSIG
NZCH 241000Z AUTO 08008KT 9999 NCD 12/10 Q1017 NOSIG
NZCH 240930Z AUTO 07006KT 9999 NCD 12/10 Q1017 NOSIG
NZCH 240900Z AUTO 06006KT 9999 NCD 11/09 Q1017 NOSIG
NZCH 240830Z AUTO 07008KT 9999 NCD 12/09 Q1016 NOSIG
NZCH 240800Z AUTO 07010KT 9999 NCD 13/09 Q1016 NOSIG
NZCH 240730Z AUTO 06010KT 9999 NCD 13/09 Q1016 NOSIG
NZCH 240700Z AUTO 06008KT 9999 NCD 12/08 Q1015 NOSIG
NZCH 240630Z AUTO 07008KT 9999 NCD 13/08 Q1015 NOSIG
NZCH 240600Z AUTO 08009KT 9999 NCD 14/07 Q1015 NOSIG
NZCH 240530Z AUTO 07009KT 9999 NCD 15/07 Q1014 NOSIG
NZCH 240500Z AUTO 08009KT 9999 NCD 17/07 Q1014 NOSIG
NZCH 240430Z AUTO 13005KT 9999 NCD 19/04 Q1014 BECMG 06010KT
NZCH 240400Z AUTO 15003KT 9999 NCD 19/05 Q1014 BECMG 06010KT
NZCH 240330Z AUTO 16006KT 130V190 9999 NCD 19/06 Q1014 BECMG 06010KT
NZCH 240300Z AUTO 19004KT 140V230 9999 NCD 19/05 Q1014 BECMG 06010KT
NZCH 240230Z AUTO 20007KT 9999 NCD 19/06 Q1014 BECMG 06010KT
NZCH 240200Z AUTO 20008KT 9999 NCD 18/06 Q1014 BECMG FM0300 06010KT 
NZCH 240130Z AUTO 23008KT 200V260 9999 NCD 18/08 Q1014 BECMG FM0300 06010KT 
NZCH 240100Z AUTO 20007KT 160V230 9999 NCD 18/10 Q1014 NOSIG
NZCH 240030Z AUTO 20009KT 9999 NCD 18/08 Q1014 NOSIG
NZCH 240000Z AUTO 21011KT 9999 NCD 18/07 Q1014 NOSIG
NZCH 232330Z AUTO 23012KT 9999 NCD 18/07 Q1014 NOSIG
NZCH 232300Z AUTO 25008KT 220V300 9999 NCD 18/06 Q1014 NOSIG
NZCH 232230Z AUTO 26008KT 220V310 9999 NCD 16/06 Q1014 NOSIG
NZCH 232200Z AUTO 21009KT 9999 NCD 14/08 Q1014 NOSIG
NZCH 232130Z AUTO 25004KT 220V280 9999 NCD 14/07 Q1013 NOSIG
NZCH 232100Z AUTO 29003KT 9999 NCD 13/08 Q1012 NOSIG
NZCH 232030Z AUTO 22002KT 9999 NCD 09/08 Q1013 NOSIG
NZCH 232000Z AUTO 26002KT 9999 NCD 06/06 Q1012 NOSIG